createdAt,value
2022-12-11T00:00:30.482Z,5.38
2022-12-11T00:03:19.954Z,5.11
2022-12-11T00:05:47.597Z,5.22
2022-12-11T00:08:15.894Z,5.09
2022-12-11T00:10:50.126Z,5.06
2022-12-11T00:13:17.450Z,5.36
2022-12-11T00:15:45.002Z,5.03
2022-12-11T00:18:14.324Z,5.21
2022-12-11T00:20:42.317Z,5.28
2022-12-11T00:23:11.199Z,5.02
2022-12-11T00:25:46.722Z,5.05
2022-12-11T00:28:18.168Z,5.05
2022-12-11T00:30:46.170Z,5.09
2022-12-11T00:33:15.305Z,5.03
2022-12-11T00:35:46.453Z,5.15
2022-12-11T00:38:20.258Z,5.08
2022-12-11T00:40:49.507Z,4.92
2022-12-11T00:43:17.699Z,5.06
2022-12-11T00:45:48.121Z,4.99
2022-12-11T00:48:15.625Z,4.86
2022-12-11T00:50:43.283Z,4.86
2022-12-11T00:53:10.850Z,4.78
2022-12-11T00:55:43.359Z,4.74
2022-12-11T00:58:11.569Z,4.66
2022-12-11T01:00:40.258Z,4.88
2022-12-11T01:03:08.293Z,4.81
2022-12-11T01:05:37.183Z,4.78
2022-12-11T01:08:04.817Z,4.72
2022-12-11T01:10:35.068Z,4.91
2022-12-11T01:13:07.001Z,4.80
2022-12-11T01:15:41.891Z,5.03
2022-12-11T01:18:11.917Z,4.89
2022-12-11T01:20:41.504Z,4.99
2022-12-11T01:23:12.585Z,4.98
2022-12-11T01:25:40.850Z,4.97
2022-12-11T01:28:09.334Z,5.06
2022-12-11T01:30:37.481Z,5.00
2022-12-11T01:33:04.764Z,4.92
2022-12-11T01:35:34.091Z,4.89
2022-12-11T01:38:01.579Z,4.89
2022-12-11T01:40:29.921Z,4.77
2022-12-11T01:42:57.440Z,4.81
2022-12-11T01:45:27.397Z,4.82
2022-12-11T01:48:12.577Z,5.00
2022-12-11T01:50:45.552Z,4.89
2022-12-11T01:53:16.710Z,4.79
2022-12-11T01:55:47.593Z,4.97
2022-12-11T01:58:16.544Z,4.77
2022-12-11T02:00:44.096Z,4.73
2022-12-11T02:03:11.584Z,4.71
2022-12-11T02:05:39.491Z,4.57
2022-12-11T02:08:08.004Z,4.59
2022-12-11T02:10:57.273Z,4.67
2022-12-11T02:13:24.527Z,4.74
2022-12-11T02:16:14.201Z,4.66
2022-12-11T02:19:42.750Z,4.57
2022-12-11T02:22:18.175Z,4.28
2022-12-11T02:25:21.856Z,4.27
2022-12-11T02:27:59.018Z,4.32
2022-12-11T02:30:27.076Z,4.41
2022-12-11T02:32:59.139Z,4.26
2022-12-11T02:35:32.053Z,4.04
2022-12-11T02:38:08.779Z,4.13
2022-12-11T02:40:39.929Z,4.00
2022-12-11T02:43:13.677Z,4.16
2022-12-11T02:45:42.711Z,4.14
2022-12-11T02:48:11.980Z,4.05
2022-12-11T02:50:46.366Z,3.99
2022-12-11T02:53:18.704Z,4.03
2022-12-11T02:55:47.610Z,4.04
2022-12-11T02:58:38.386Z,3.96
2022-12-11T03:01:06.044Z,4.10
2022-12-11T03:03:33.751Z,3.94
2022-12-11T03:06:01.673Z,3.69
2022-12-11T03:08:29.302Z,3.71
2022-12-11T03:10:56.586Z,3.52
2022-12-11T03:13:24.238Z,3.53
2022-12-11T03:16:03.652Z,3.47
2022-12-11T03:18:44.796Z,3.30
2022-12-11T03:21:20.432Z,3.80
2022-12-11T03:23:54.251Z,3.80
2022-12-11T03:26:24.587Z,3.67
2022-12-11T03:29:00.721Z,3.47
2022-12-11T03:31:48.504Z,3.33
2022-12-11T03:34:28.087Z,3.27
2022-12-11T03:36:58.672Z,3.56
2022-12-11T03:39:32.456Z,3.27
2022-12-11T03:42:02.598Z,3.28
2022-12-11T03:44:33.617Z,3.05
2022-12-11T03:47:03.581Z,3.13
2022-12-11T03:49:37.092Z,3.49
2022-12-11T03:52:05.568Z,3.37
2022-12-11T03:54:34.957Z,3.16
2022-12-11T03:57:05.062Z,3.08
2022-12-11T03:59:35.131Z,3.18
2022-12-11T04:02:02.459Z,3.24
2022-12-11T04:04:30.152Z,3.27
2022-12-11T04:06:58.861Z,2.98
2022-12-11T04:09:26.400Z,3.22
2022-12-11T04:11:53.641Z,3.25
2022-12-11T04:14:40.086Z,3.23
2022-12-11T04:17:07.340Z,3.52
2022-12-11T04:19:53.422Z,3.60
2022-12-11T04:22:39.055Z,3.43
2022-12-11T04:25:08.471Z,3.40
2022-12-11T04:27:50.747Z,3.23
2022-12-11T04:30:22.020Z,3.29
2022-12-11T04:32:49.850Z,3.36
2022-12-11T04:35:18.085Z,3.25
2022-12-11T04:37:45.333Z,3.33
2022-12-11T04:40:15.550Z,3.10
2022-12-11T04:42:43.419Z,3.16
2022-12-11T04:45:13.098Z,3.20
2022-12-11T04:47:41.387Z,3.29
2022-12-11T04:50:12.378Z,3.26
2022-12-11T04:52:39.616Z,3.28
2022-12-11T04:55:08.169Z,3.18
2022-12-11T04:57:35.683Z,3.44
2022-12-11T05:00:07.586Z,3.43
2022-12-11T05:02:37.766Z,3.05
2022-12-11T05:05:07.390Z,2.98
2022-12-11T05:07:34.613Z,3.03
2022-12-11T05:10:03.815Z,3.23
2022-12-11T05:12:32.783Z,3.60
2022-12-11T05:15:00.388Z,3.70
2022-12-11T05:17:27.743Z,3.76
2022-12-11T05:19:55.299Z,3.62
2022-12-11T05:22:22.636Z,3.00
2022-12-11T05:24:50.286Z,2.92
2022-12-11T05:27:17.559Z,2.91
2022-12-11T05:29:45.195Z,3.25
2022-12-11T05:32:12.355Z,3.13
2022-12-11T05:34:39.908Z,3.12
2022-12-11T05:37:07.471Z,3.17
2022-12-11T05:42:24.010Z,3.24
2022-12-11T05:44:54.714Z,3.49
2022-12-11T05:47:22.052Z,3.09
2022-12-11T05:49:52.375Z,3.00
2022-12-11T05:52:20.334Z,3.28
2022-12-11T05:54:50.526Z,3.38
2022-12-11T05:57:17.889Z,3.63
2022-12-11T05:59:46.588Z,3.47
2022-12-11T06:02:13.996Z,3.40
2022-12-11T06:04:42.073Z,3.08
2022-12-11T06:07:10.397Z,2.98
2022-12-11T06:09:37.907Z,3.08
2022-12-11T06:12:05.198Z,3.00
2022-12-11T06:14:32.724Z,3.22
2022-12-11T06:16:59.992Z,3.44
2022-12-11T06:19:29.773Z,3.39
2022-12-11T06:22:00.901Z,3.34
2022-12-11T06:24:28.638Z,3.08
2022-12-11T06:26:55.890Z,3.21
2022-12-11T06:29:23.399Z,3.09
2022-12-11T06:31:50.660Z,2.98
2022-12-11T06:34:18.203Z,3.06
2022-12-11T06:36:46.377Z,3.03
2022-12-11T06:39:13.907Z,2.78
2022-12-11T06:41:41.333Z,2.94
2022-12-11T06:44:09.486Z,2.91
2022-12-11T06:46:36.713Z,3.26
2022-12-11T06:49:04.191Z,3.18
2022-12-11T06:51:32.881Z,3.40
2022-12-11T06:54:00.350Z,3.50
2022-12-11T06:56:27.569Z,3.58
2022-12-11T06:58:57.163Z,3.41
2022-12-11T07:01:27.779Z,3.14
2022-12-11T07:03:57.565Z,3.24
2022-12-11T07:06:26.197Z,3.13
2022-12-11T07:08:54.587Z,3.32
2022-12-11T07:11:22.063Z,3.12
2022-12-11T07:13:49.869Z,2.90
2022-12-11T07:16:18.109Z,3.03
2022-12-11T07:18:51.339Z,3.32
2022-12-11T07:21:20.525Z,3.51
2022-12-11T07:23:49.116Z,3.39
2022-12-11T07:26:20.743Z,3.27
2022-12-11T07:28:49.413Z,3.10
2022-12-11T07:31:23.274Z,3.12
2022-12-11T07:34:02.794Z,3.03
2022-12-11T07:36:30.474Z,3.24
2022-12-11T07:38:59.170Z,3.41
2022-12-11T07:41:31.830Z,3.40
2022-12-11T07:44:00.520Z,2.94
2022-12-11T07:46:29.655Z,2.90
2022-12-11T07:48:57.227Z,3.11
2022-12-11T07:51:28.141Z,3.08
2022-12-11T07:53:59.782Z,3.02
2022-12-11T07:56:28.735Z,2.95
2022-12-11T07:58:59.966Z,3.39
2022-12-11T08:01:29.542Z,3.29
2022-12-11T08:03:57.857Z,3.25
2022-12-11T08:06:28.067Z,3.27
2022-12-11T08:08:58.747Z,3.03
2022-12-11T08:11:27.143Z,3.00
2022-12-11T08:13:55.437Z,2.90
2022-12-11T08:16:23.208Z,3.12
2022-12-11T08:18:53.865Z,2.98
2022-12-11T08:21:23.774Z,3.29
2022-12-11T08:23:52.880Z,3.22
2022-12-11T08:26:26.372Z,3.12
2022-12-11T08:29:00.832Z,3.00
2022-12-11T08:31:32.115Z,3.64
2022-12-11T08:33:59.679Z,3.11
2022-12-11T08:36:27.037Z,3.41
2022-12-11T08:38:55.882Z,3.31
2022-12-11T08:41:26.934Z,3.05
2022-12-11T08:43:55.769Z,2.92
2022-12-11T08:46:25.206Z,3.12
2022-12-11T08:48:53.413Z,3.02
2022-12-11T08:51:24.309Z,3.18
2022-12-11T08:53:57.017Z,3.42
2022-12-11T08:56:25.473Z,3.39
2022-12-11T08:58:53.526Z,3.40
2022-12-11T09:01:26.517Z,3.31
2022-12-11T09:04:12.821Z,3.26
2022-12-11T09:06:40.069Z,3.42
2022-12-11T09:09:07.632Z,3.66
2022-12-11T09:11:37.672Z,3.76
2022-12-11T09:14:07.843Z,3.71
2022-12-11T09:16:40.449Z,3.82
2022-12-11T09:19:11.785Z,3.71
2022-12-11T09:21:39.069Z,3.71
2022-12-11T09:24:07.020Z,3.92
2022-12-11T09:26:34.319Z,3.71
2022-12-11T09:29:04.098Z,3.93
2022-12-11T09:31:35.146Z,3.71
2022-12-11T09:34:08.090Z,3.87
2022-12-11T09:36:35.622Z,4.07
2022-12-11T09:39:05.894Z,4.21
2022-12-11T09:41:59.922Z,4.11
2022-12-11T09:44:38.324Z,3.91
2022-12-11T09:47:36.321Z,4.08
2022-12-11T09:50:11.229Z,4.35
2022-12-11T09:53:06.070Z,4.57
2022-12-11T09:55:47.197Z,4.76
2022-12-11T09:58:33.038Z,4.55
2022-12-11T10:01:10.183Z,4.75
2022-12-11T10:04:07.992Z,4.26
2022-12-11T10:06:47.259Z,4.52
2022-12-11T10:09:27.929Z,4.53
2022-12-11T10:12:04.643Z,4.57
2022-12-11T10:14:35.114Z,4.48
2022-12-11T10:17:20.419Z,4.44
2022-12-11T10:19:49.538Z,4.51
2022-12-11T10:22:27.576Z,3.86
2022-12-11T10:25:11.265Z,3.97
2022-12-11T10:27:41.327Z,4.30
2022-12-11T10:30:16.835Z,4.37
2022-12-11T10:32:50.630Z,4.50
2022-12-11T10:35:51.235Z,4.44
2022-12-11T10:38:28.758Z,4.52
2022-12-11T10:41:05.113Z,4.46
2022-12-11T10:43:42.502Z,4.43
2022-12-11T10:46:19.916Z,4.21
2022-12-11T10:48:56.902Z,4.03
2022-12-11T10:51:39.255Z,4.17
2022-12-11T10:54:17.518Z,4.17
2022-12-11T10:56:48.646Z,3.80
2022-12-11T10:59:38.375Z,4.12
2022-12-11T11:02:16.322Z,4.17
2022-12-11T11:04:45.397Z,4.44
2022-12-11T11:07:22.049Z,4.68
2022-12-11T11:09:50.479Z,4.28
2022-12-11T11:12:24.390Z,4.40
2022-12-11T11:15:27.817Z,4.59
2022-12-11T11:17:57.664Z,4.59
2022-12-11T11:20:29.341Z,4.59
2022-12-11T11:23:00.490Z,4.75
2022-12-11T11:25:31.630Z,4.76
2022-12-11T11:28:00.803Z,4.46
2022-12-11T11:30:41.710Z,4.62
2022-12-11T11:33:21.128Z,4.63
2022-12-11T11:35:52.972Z,4.71
2022-12-11T11:38:49.879Z,4.58
2022-12-11T11:41:35.703Z,4.78
2022-12-11T11:44:07.219Z,4.70
2022-12-11T11:46:48.977Z,4.83
2022-12-11T11:49:28.291Z,4.71
2022-12-11T11:52:40.158Z,4.91
2022-12-11T11:55:22.485Z,4.52
2022-12-11T11:58:23.203Z,4.51
2022-12-11T12:00:54.764Z,4.42
2022-12-11T12:03:25.891Z,4.34
2022-12-11T12:06:09.783Z,4.49
2022-12-11T12:09:19.199Z,4.07
2022-12-11T12:12:20.932Z,4.41
2022-12-11T12:15:09.671Z,4.39
2022-12-11T12:17:56.414Z,3.98
2022-12-11T12:20:39.450Z,3.96
2022-12-11T12:23:15.053Z,4.20
2022-12-11T12:26:11.261Z,4.50
2022-12-11T12:29:01.750Z,4.29
2022-12-11T12:32:06.863Z,4.35
2022-12-11T12:35:08.593Z,4.22
2022-12-11T12:38:02.520Z,4.17
2022-12-11T12:40:39.652Z,3.77
2022-12-11T12:43:25.760Z,3.93
2022-12-11T12:46:20.185Z,4.17
2022-12-11T12:48:49.743Z,4.45
2022-12-11T12:51:18.436Z,4.65
2022-12-11T12:54:00.790Z,4.53
2022-12-11T12:56:32.843Z,4.28
2022-12-11T12:59:00.358Z,3.78
2022-12-11T13:01:30.125Z,3.87
2022-12-11T13:04:16.781Z,3.93
2022-12-11T13:07:00.651Z,4.26
2022-12-11T13:09:28.706Z,4.15
2022-12-11T13:15:01.111Z,4.38
2022-12-11T13:17:39.203Z,4.52
2022-12-11T13:20:18.223Z,4.49
2022-12-11T13:23:02.040Z,4.31
2022-12-11T13:25:31.901Z,4.45
2022-12-11T13:28:23.266Z,4.17
2022-12-11T13:31:16.076Z,4.03
2022-12-11T13:33:54.474Z,4.18
2022-12-11T13:36:24.804Z,3.70
2022-12-11T13:38:58.059Z,4.19
2022-12-11T13:41:26.778Z,4.31
2022-12-11T13:43:55.771Z,4.29
2022-12-11T13:46:29.477Z,4.11
2022-12-11T13:49:02.686Z,4.01
2022-12-11T13:51:33.515Z,4.17
2022-12-11T13:54:18.715Z,4.16
2022-12-11T13:57:15.635Z,4.21
2022-12-11T13:59:53.530Z,4.29
2022-12-11T14:02:32.750Z,4.49
2022-12-11T14:05:08.763Z,4.26
2022-12-11T14:07:44.755Z,4.35
2022-12-11T14:10:15.040Z,4.27
2022-12-11T14:12:55.467Z,4.15
2022-12-11T14:15:23.830Z,4.00
2022-12-11T14:17:52.306Z,3.93
2022-12-11T14:20:23.331Z,4.20
2022-12-11T14:22:51.442Z,4.31
2022-12-11T14:25:27.320Z,4.24
2022-12-11T14:27:56.844Z,3.92
2022-12-11T14:30:30.078Z,4.28
2022-12-11T14:33:01.531Z,4.31
2022-12-11T14:35:40.007Z,4.30
2022-12-11T14:38:24.136Z,4.21
2022-12-11T14:40:58.609Z,4.55
2022-12-11T14:43:32.376Z,4.61
2022-12-11T14:46:06.002Z,4.25
2022-12-11T14:48:45.718Z,4.39
2022-12-11T14:51:17.231Z,4.53
2022-12-11T14:53:49.192Z,4.74
2022-12-11T14:56:27.832Z,4.49
2022-12-11T14:59:03.097Z,4.32
2022-12-11T15:01:33.014Z,4.37
2022-12-11T15:04:27.891Z,4.21
2022-12-11T15:06:55.913Z,4.28
2022-12-11T15:09:37.931Z,4.19
2022-12-11T15:12:16.709Z,4.17
2022-12-11T15:14:56.291Z,4.25
2022-12-11T15:17:25.691Z,4.31
2022-12-11T15:20:04.967Z,4.23
2022-12-11T15:22:33.250Z,3.91
2022-12-11T15:25:01.455Z,3.98
2022-12-11T15:27:31.766Z,4.19
2022-12-11T15:30:01.570Z,4.72
2022-12-11T15:32:30.565Z,4.48
2022-12-11T15:35:01.117Z,4.42
2022-12-11T15:37:31.680Z,4.65
2022-12-11T15:40:01.098Z,4.43
2022-12-11T15:42:40.982Z,4.25
2022-12-11T15:45:16.511Z,4.38
2022-12-11T15:47:45.339Z,4.49
2022-12-11T15:50:17.487Z,4.20
2022-12-11T15:52:45.500Z,4.31
2022-12-11T15:55:34.967Z,4.51
2022-12-11T15:58:06.176Z,4.48
2022-12-11T16:00:34.534Z,4.60
2022-12-11T16:03:02.042Z,4.68
2022-12-11T16:05:31.476Z,4.80
2022-12-11T16:08:01.915Z,4.66
2022-12-11T16:10:29.735Z,4.43
2022-12-11T16:12:59.767Z,4.35
2022-12-11T16:15:29.624Z,4.37
2022-12-11T16:18:04.864Z,4.14
2022-12-11T16:20:34.336Z,4.54
2022-12-11T16:23:20.672Z,4.57
2022-12-11T16:25:48.408Z,4.70
2022-12-11T16:28:18.147Z,4.74
2022-12-11T16:30:46.019Z,4.71
2022-12-11T16:33:15.234Z,4.78
2022-12-11T16:35:43.096Z,4.62
2022-12-11T16:38:11.079Z,4.66
2022-12-11T16:40:39.358Z,4.81
2022-12-11T16:43:25.291Z,4.54
2022-12-11T16:45:56.220Z,4.53
2022-12-11T16:48:23.567Z,4.43
2022-12-11T16:50:56.067Z,4.53
2022-12-11T16:53:23.725Z,4.46
2022-12-11T16:55:51.799Z,4.36
2022-12-11T16:58:20.315Z,4.38
2022-12-11T17:00:48.795Z,4.52
2022-12-11T17:03:16.587Z,4.61
2022-12-11T17:05:44.348Z,4.53
2022-12-11T17:08:12.942Z,4.54
2022-12-11T17:10:41.833Z,4.43
2022-12-11T17:13:09.104Z,4.44
2022-12-11T17:15:41.482Z,4.49
2022-12-11T17:18:09.352Z,4.53
2022-12-11T17:20:44.743Z,4.57
2022-12-11T17:23:13.513Z,4.79
2022-12-11T17:25:45.736Z,4.59
2022-12-11T17:28:13.911Z,4.70
2022-12-11T17:30:43.531Z,4.62
2022-12-11T17:33:12.034Z,4.81
2022-12-11T17:35:39.774Z,4.94
2022-12-11T17:38:07.332Z,4.87
2022-12-11T17:40:35.256Z,4.80
2022-12-11T17:43:31.446Z,4.83
2022-12-11T17:45:59.194Z,4.67
2022-12-11T17:48:26.864Z,4.85
2022-12-11T17:50:54.751Z,4.74
2022-12-11T17:53:24.424Z,4.66
2022-12-11T17:55:52.297Z,4.86
2022-12-11T17:58:22.341Z,4.79
2022-12-11T18:00:54.390Z,4.68
2022-12-11T18:03:23.534Z,4.67
2022-12-11T18:05:56.550Z,4.69
2022-12-11T18:08:27.348Z,4.68
2022-12-11T18:10:56.590Z,4.66
2022-12-11T18:13:24.632Z,4.74
2022-12-11T18:16:06.026Z,4.98
2022-12-11T18:18:33.913Z,4.82
2022-12-11T18:21:02.272Z,4.60
2022-12-11T18:23:30.022Z,4.59
2022-12-11T18:25:57.597Z,4.63
2022-12-11T18:28:24.860Z,4.54
2022-12-11T18:30:54.102Z,4.72
2022-12-11T18:33:23.254Z,4.87
2022-12-11T18:35:51.838Z,4.74
2022-12-11T18:38:19.180Z,4.60
2022-12-11T18:40:48.844Z,4.74
2022-12-11T18:43:18.293Z,4.75
2022-12-11T18:46:01.008Z,4.89
2022-12-11T18:48:28.716Z,4.80
2022-12-11T18:51:25.510Z,4.94
2022-12-11T18:54:02.703Z,4.89
2022-12-11T18:56:30.770Z,4.98
2022-12-11T18:58:59.937Z,5.03
2022-12-11T19:01:30.089Z,5.21
2022-12-11T19:04:07.755Z,4.81
2022-12-11T19:07:07.453Z,5.00
2022-12-11T19:09:38.203Z,5.13
2022-12-11T19:12:08.136Z,5.03
2022-12-11T19:14:45.753Z,5.03
2022-12-11T19:17:15.024Z,5.08
2022-12-11T19:19:47.023Z,4.90
2022-12-11T19:22:16.769Z,4.93
2022-12-11T19:24:45.631Z,4.61
2022-12-11T19:27:13.820Z,4.59
2022-12-11T19:29:41.483Z,4.65
2022-12-11T19:32:09.126Z,4.38
2022-12-11T19:34:38.664Z,4.46
2022-12-11T19:37:08.460Z,4.56
2022-12-11T19:39:39.636Z,4.47
2022-12-11T19:42:07.432Z,4.48
2022-12-11T19:44:36.651Z,4.60
2022-12-11T19:47:06.369Z,4.44
2022-12-11T19:49:34.811Z,4.78
2022-12-11T19:52:08.035Z,4.84
2022-12-11T19:54:36.110Z,4.79
2022-12-11T19:57:04.285Z,4.77
2022-12-11T19:59:31.801Z,4.76
2022-12-11T20:01:59.813Z,4.65
2022-12-11T20:04:27.429Z,4.79
2022-12-11T20:06:55.204Z,4.80
2022-12-11T20:09:24.468Z,4.67
2022-12-11T20:11:52.235Z,4.71
2022-12-11T20:14:27.682Z,4.66
2022-12-11T20:17:13.798Z,4.63
2022-12-11T20:19:43.539Z,4.58
2022-12-11T20:22:12.329Z,4.61
2022-12-11T20:24:45.756Z,4.57
2022-12-11T20:27:13.534Z,4.59
2022-12-11T20:29:49.724Z,4.65
2022-12-11T20:32:17.763Z,4.34
2022-12-11T20:34:47.188Z,4.36
2022-12-11T20:37:14.885Z,4.44
2022-12-11T20:40:14.554Z,4.46
2022-12-11T20:42:42.595Z,4.54
2022-12-11T20:45:13.217Z,4.26
2022-12-11T20:47:40.925Z,4.72
2022-12-11T20:50:11.177Z,4.65
2022-12-11T20:52:39.330Z,4.91
2022-12-11T20:55:10.515Z,4.74
2022-12-11T20:57:45.055Z,4.54
2022-12-11T21:00:18.103Z,4.61
2022-12-11T21:02:51.167Z,4.65
2022-12-11T21:05:18.599Z,4.79
2022-12-11T21:07:54.166Z,4.70
2022-12-11T21:10:23.159Z,4.67
2022-12-11T21:12:51.825Z,4.64
2022-12-11T21:15:19.358Z,4.72
2022-12-11T21:17:47.492Z,4.60
2022-12-11T21:20:14.962Z,4.53
2022-12-11T21:22:42.954Z,4.62
2022-12-11T21:25:11.185Z,4.55
2022-12-11T21:27:40.011Z,4.37
2022-12-11T21:30:07.648Z,4.44
2022-12-11T21:32:35.583Z,4.48
2022-12-11T21:35:03.290Z,4.35
2022-12-11T21:37:31.094Z,4.27
2022-12-11T21:39:58.600Z,4.43
2022-12-11T21:42:27.819Z,4.46
2022-12-11T21:47:42.809Z,4.48
2022-12-11T21:50:11.551Z,4.27
2022-12-11T21:52:41.057Z,3.99
2022-12-11T21:55:08.519Z,3.82
2022-12-11T21:57:36.017Z,3.33
2022-12-11T22:00:05.840Z,3.23
2022-12-11T22:02:41.194Z,2.98
2022-12-11T22:05:09.469Z,2.96
2022-12-11T22:07:37.222Z,2.98
2022-12-11T22:10:05.988Z,3.15
2022-12-11T22:12:36.162Z,3.03
2022-12-11T22:15:04.938Z,3.17
2022-12-11T22:17:33.138Z,3.14
2022-12-11T22:20:01.669Z,3.45
2022-12-11T22:22:36.066Z,3.59
2022-12-11T22:25:07.109Z,3.33
2022-12-11T22:27:35.133Z,3.46
2022-12-11T22:30:02.744Z,3.60
2022-12-11T22:32:31.404Z,3.66
2022-12-11T22:34:58.716Z,3.58
2022-12-11T22:37:26.922Z,3.78
2022-12-11T22:39:54.123Z,3.81
2022-12-11T22:42:21.956Z,3.65
2022-12-11T22:44:49.537Z,3.54
2022-12-11T22:47:17.119Z,3.46
2022-12-11T22:49:44.306Z,3.33
2022-12-11T22:52:12.964Z,3.55
2022-12-11T22:54:42.170Z,3.67
2022-12-11T22:57:09.897Z,3.79
2022-12-11T22:59:37.191Z,3.80
2022-12-11T23:02:04.801Z,3.81
2022-12-11T23:04:33.218Z,3.41
2022-12-11T23:07:00.787Z,3.30
2022-12-11T23:09:28.156Z,3.30
2022-12-11T23:11:55.984Z,3.60
2022-12-11T23:14:26.120Z,3.60
2022-12-11T23:16:54.547Z,3.58
2022-12-11T23:19:25.441Z,3.47
2022-12-11T23:21:53.833Z,3.31
2022-12-11T23:24:21.255Z,3.18
2022-12-11T23:26:48.778Z,3.42
2022-12-11T23:29:15.990Z,3.19
2022-12-11T23:31:43.506Z,3.31
2022-12-11T23:34:10.798Z,3.28
2022-12-11T23:36:39.276Z,3.03
2022-12-11T23:39:06.608Z,3.16
2022-12-11T23:41:34.154Z,3.47
2022-12-11T23:44:01.596Z,3.56
2022-12-11T23:46:32.643Z,3.64
2022-12-11T23:49:00.101Z,3.62
2022-12-11T23:51:27.820Z,3.71
2022-12-11T23:54:00.490Z,3.67
2022-12-11T23:56:29.466Z,3.65
2022-12-11T23:58:57.772Z,3.51
